MST,Max TemperatureF,Mean TemperatureF,Min TemperatureF,Max Dew PointF,MeanDew PointF,Min DewpointF,Max Humidity, Mean Humidity, Min Humidity, Max Sea Level PressureIn, Mean Sea Level PressureIn, Min Sea Level PressureIn, Max VisibilityMiles, Mean VisibilityMiles, Min VisibilityMiles, Max Wind SpeedMPH, Mean Wind SpeedMPH, Max Gust SpeedMPH,PrecipitationIn, CloudCover, Events, WindDirDegrees
2014-1-1,49,37,24,21,15,6,69,48,27,30.30,30.19,30.09,10,10,10,21,8,28,0.00,0,,53
2014-1-2,53,36,18,19,12,5,75,46,16,30.37,30.25,30.14,10,10,10,13,3,16,0.00,0,,65
2014-1-3,53,35,17,21,16,12,80,51,21,30.22,30.07,29.93,10,10,10,17,5,22,0.00,0,,230
2014-1-4,50,37,23,23,15,-1,75,48,21,30.08,29.95,29.83,10,10,10,21,9,30,0.00,0,,246
2014-1-5,39,25,11,2,-2,-6,66,43,20,30.36,30.22,30.04,10,10,10,15,6,19,0.00,0,,72
2014-1-6,42,31,19,8,0,-5,57,37,16,30.44,30.36,30.29,10,10,10,16,8,21,0.00,0,,68
2014-1-7,52,34,15,16,11,7,73,46,18,30.31,30.19,30.06,10,10,10,17,4,23,0.00,0,,233
2014-1-8,50,34,17,17,13,10,74,48,21,30.15,30.08,30.00,10,10,10,16,5,24,0.00,0,,231
2014-1-9,47,35,22,16,13,6,68,44,20,30.11,30.02,29.96,10,10,10,20,7,25,0.00,1,,232
2014-1-10,50,38,26,20,18,13,59,44,29,30.16,30.05,29.96,10,10,10,14,6,22,0.00,0,,256
2014-1-11,55,38,20,24,21,17,84,56,28,30.28,30.15,29.94,10,10,10,18,5,22,0.00,0,,239
2014-1-12,48,35,22,23,14,4,75,45,15,30.27,30.06,29.92,10,10,10,16,5,26,0.00,0,,265
2014-1-13,52,33,14,15,11,7,73,46,19,30.46,30.36,30.26,10,10,10,13,2,16,0.00,0,,12
2014-1-14,50,33,15,14,8,6,73,45,16,30.49,30.39,30.29,10,10,10,35,13,44,0.00,0,,57
2014-1-15,59,39,19,15,12,7,73,43,13,30.46,30.35,30.22,10,10,10,14,2,18,0.00,0,,67
2014-1-16,50,34,17,14,6,0,80,47,14,30.32,30.26,30.21,10,10,10,25,11,32,0.00,0,,59
2014-1-17,52,37,22,11,6,3,55,35,14,30.25,30.20,30.14,10,10,10,22,8,25,0.00,0,,71
2014-1-18,53,34,15,17,10,7,80,48,16,30.39,30.27,30.20,10,10,10,15,3,19,0.00,0,,80
2014-1-19,57,36,15,17,11,7,74,45,15,30.42,30.28,30.19,10,10,10,15,3,17,0.00,0,,213
2014-1-20,56,37,17,17,10,3,74,44,13,30.46,30.29,30.18,10,10,10,14,3,18,0.00,0,,74
2014-1-21,50,35,19,16,11,8,67,43,19,30.50,30.33,30.21,10,10,10,14,4,18,0.00,0,,68
2014-1-22,55,40,25,21,14,6,75,45,15,30.17,30.03,29.89,10,10,10,20,4,23,0.00,0,,243
2014-1-23,43,31,18,14,11,9,74,51,27,30.31,30.13,29.92,10,10,10,24,8,32,0.00,0,,65
2014-1-24,41,34,26,16,13,12,58,44,30,30.44,30.40,30.35,10,10,10,16,8,21,0.00,0,,70
2014-1-25,56,41,25,18,14,5,68,42,16,30.35,30.23,30.10,10,10,10,13,3,20,0.00,3,,252
2014-1-26,56,41,25,14,7,-13,55,31,6,30.12,30.03,29.94,10,10,10,16,7,21,0.00,0,,234
2014-1-27,54,40,26,16,5,-9,58,33,8,30.10,29.99,29.89,10,9,2,15,5,21,0.00,0,,243
2014-1-28,51,36,21,14,11,6,60,40,20,30.23,30.09,29.95,10,10,6,17,3,23,0.00,1,,72
2014-1-29,60,39,17,26,17,10,74,50,25,30.23,30.07,29.89,10,10,2,16,6,21,0.00,0,,257
2014-1-30,49,38,27,23,18,14,63,46,28,29.91,29.81,29.66,10,10,10,26,15,34,T,4,,219
2014-1-31,41,36,30,30,27,22,92,69,45,29.81,29.74,29.63,10,6,0,28,16,37,0.17,8,Fog-Snow,238